Kinsman, Ohio
Current Conditions -  °F | °C
As of 3:51 AM on Wednesday 26 Nov 2014 (Local Time) from KYNG Reporting Station
Overcast Overcast  
Wind Chill: 25°   Ceiling: 2200
Heat Index: 30°   Visibility: 10mi
Dew Point: 24°   Wind: 5mph
Humidity: 79%   Direction: 30°NNE
Pressure: 30.14"   Gusts: NA
Location:  41.44°N, 80.59°W
Report Text: KYNG 260851Z 03004KT 10SM BKN022 OVC140 M01/M04 A3014 RMK AO2 SLP217 T10111044 56011
Loading
Personal Weather Stations






























Interactive Weather Map New forecast layout! Learn more

10-Day Weather Forecast

Advertisements
Track Severe Weather on mobile